Catàleg de serveis del Meteocat
Campanya meteocatpedra

Dades de l'estació automàtica Sant Pere Pescador

?
?
Resum diari 23:00 TU
Dades diàries de l'estació meteorològica
Temperatura mitjana 27.5 °C
Temperatura màxima 31.7 °C 12:07 TU
Temperatura mínima 23.8 °C 23:29 TU
Humitat relativa mitjana 31%
Precipitació acumulada 0.0 mm
Ratxa màxima del vent (10 m) 51.5 km/h - 14º 15:31 TU
Pressió atmosfèrica mitjana 1010.1 hPa
Irradiació solar global 30.6 MJ/m2

El tram horari està expressat en Temps Universal (TU). Cal sumar una hora en horari d'hivern i dues en horari d'estiu per passar a l'hora oficial.

Sant Pere Pescador

Metadades estació meteorol´gica
Municipi Sant Pere Pescador
Comarca Alt Empordà
Altitud 4 m
Data alta 01.05.1989
Estat actual Operativa
Dades de període
Període
TU
TM
°C
TX
°C
TN
°C
HRM
%
PPT
mm
VVM (10 m)
km/h
DVM (10 m)
graus
VVX (10 m)
km/h
PM
hPa
RS
W/m2
00:00 - 00:30 26.3 26.4 26.3 37 0.0 17.3 341 40.0 1009.6 0
00:30 - 01:00 26.1 26.3 26.0 39 0.0 16.9 341 36.7 1009.6 0
01:00 - 01:30 25.9 26.0 25.7 40 0.0 15.8 346 35.6 1009.5 0
01:30 - 02:00 25.3 25.8 25.0 41 0.0 10.1 358 27.4 1009.5 0
02:00 - 02:30 24.6 24.9 24.4 44 0.0 8.6 354 20.5 1009.4 0
02:30 - 03:00 24.3 24.4 24.1 44 0.0 10.1 347 23.8 1009.4 0
03:00 - 03:30 24.1 24.2 24.0 44 0.0 10.1 352 24.5 1009.4 0
03:30 - 04:00 24.2 24.4 24.1 43 0.0 10.4 351 29.2 1009.4 0
04:00 - 04:30 24.1 24.2 23.9 43 0.0 11.9 353 30.6 1009.6 0
04:30 - 05:00 24.3 24.3 24.2 43 0.0 14.0 357 35.3 1009.6 30
05:00 - 05:30 24.5 24.6 24.3 42 0.0 13.0 359 33.5 1009.7 114
05:30 - 06:00 24.9 25.2 24.6 40 0.0 16.9 359 35.6 1009.7 175
06:00 - 06:30 25.3 25.4 25.2 40 0.0 18.0 360 40.7 1009.7 272
06:30 - 07:00 25.8 26.0 25.4 39 0.0 16.2 1 39.6 1009.9 366
07:00 - 07:30 26.1 26.4 25.9 38 0.0 20.5 359 45.7 1009.9 465
07:30 - 08:00 26.5 26.7 26.3 37 0.0 17.6 355 41.4 1010.1 562
08:00 - 08:30 27.0 27.2 26.7 37 0.0 18.4 359 43.9 1009.9 648
08:30 - 09:00 27.5 27.7 27.2 36 0.0 17.3 352 40.7 1009.8 725
09:00 - 09:30 27.9 28.4 27.5 35 0.0 17.3 349 35.3 1009.8 795
09:30 - 10:00 28.5 29.3 28.1 33 0.0 16.2 357 35.3 1009.5 858
10:00 - 10:30 29.1 29.4 28.9 28 0.0 18.7 351 42.5 1009.3 916
10:30 - 11:00 29.5 29.8 29.2 25 0.0 21.6 350 45.0 1009.0 958
11:00 - 11:30 30.0 30.2 29.7 24 0.0 21.6 342 47.5 1008.9 969
11:30 - 12:00 30.6 31.1 30.1 21 0.0 20.9 338 44.3 1008.8 980
12:00 - 12:30 31.3 31.7 30.9 17 0.0 21.2 347 48.2 1008.3 992
12:30 - 13:00 31.4 31.6 31.0 19 0.0 21.2 359 46.8 1008.3 971
13:00 - 13:30 31.4 31.7 30.9 20 0.0 20.2 3 46.1 1008.5 936
13:30 - 14:00 31.2 31.4 30.9 20 0.0 23.4 6 42.8 1008.7 888
14:00 - 14:30 31.0 31.3 30.7 21 0.0 22.7 6 49.0 1008.9 803
14:30 - 15:00 31.0 31.4 30.8 21 0.0 20.5 2 45.7 1009.2 756
15:00 - 15:30 30.9 31.3 30.6 22 0.0 20.5 8 45.0 1009.3 677
15:30 - 16:00 30.4 30.8 29.7 22 0.0 21.6 3 51.5 1009.4 532
16:00 - 16:30 30.4 30.6 30.2 22 0.0 19.1 356 47.5 1009.7 482
16:30 - 17:00 30.2 30.5 29.9 23 0.0 19.4 360 45.0 1009.6 422
17:00 - 17:30 29.7 30.0 29.5 23 0.0 21.6 5 44.6 1009.7 327
17:30 - 18:00 29.2 29.5 28.9 24 0.0 21.6 3 47.2 1010.1 228
18:00 - 18:30 28.7 28.9 28.3 25 0.0 20.5 6 40.0 1010.7 132
18:30 - 19:00 28.0 28.3 27.7 26 0.0 16.6 2 38.9 1011.0 54
19:00 - 19:30 27.5 27.7 27.3 27 0.0 13.7 360 32.4 1011.3 5
19:30 - 20:00 27.0 27.3 26.7 27 0.0 10.1 352 32.0 1012.0 0
20:00 - 20:30 26.7 26.9 26.2 28 0.0 10.1 354 28.4 1012.6 0
20:30 - 21:00 25.8 26.1 25.6 30 0.0 7.2 353 20.5 1013.1 0
21:00 - 21:30 25.6 25.8 25.5 30 0.0 10.8 347 24.8 1013.2 0
21:30 - 22:00 25.5 25.7 25.3 30 0.0 10.4 353 31.7 1013.4 0
22:00 - 22:30 25.9 26.0 25.7 30 0.0 10.8 345 27.0 1013.5 0
22:30 - 23:00 25.4 25.7 25.1 32 0.0 9.0 340 19.4 1013.9 0
23:00 - 23:30 24.4 25.0 23.8 34 0.0 6.8 334 16.6 1014.1 0

Les dades en taronja només han passat un control de qualitat automàtic. Resta pendent la seva validació definitiva.